^^
Grace C. Lehan Memorial Weather Station Historical Data
Daily Summary for August 3, 2022 Units:  English    Metric   Both
Daily Weekly Monthly Yearly
  High: Low: Average:
Temperature: 56.5 °F 38.8 °F 49.3 °F
Dew Point: 54.7 °F 33.5 °F 45.3 °F
Humidity: 95% 70% 86%
Wind Speed: 11.5mph 0mph 2mph
Wind Gust: 28mph - -
Wind- - WSW
Pressure: 30.38 in 29.85 in -
Precipitation: 0.36 in    
 
 
Tabular Data for August 3, 2022
Time Temperature Dew Point Pressure Wind Wind Speed Wind Gust Humidity Rainfall Rate (Hourly) solar
00:04 38.8 °F 33.5 °F 30.38 in Calm     81.2% 0.00 in 0 W/m2
00:09 38.8 °F 33.5 °F 30.37 in Calm     81.1% 0.00 in 0 W/m2
00:14 38.8 °F 33.8 °F 30.38 in Calm     82% 0.00 in 0 W/m2
00:19 38.9 °F 33.8 °F 30.38 in Calm     82% 0.00 in 0 W/m2
00:24 38.9 °F 33.9 °F 30.38 in Calm     82% 0.00 in 0 W/m2
00:29 39 °F 34 °F 30.38 in Calm     82% 0.00 in 0 W/m2
00:34 39 °F 34 °F 30.37 in Calm     82% 0.00 in 0 W/m2
00:39 39 °F 34 °F 30.37 in Calm     82% 0.00 in 0 W/m2
00:44 39.1 °F 34.1 °F 30.36 in Calm     82% 0.00 in 0 W/m2
00:49 39.1 °F 34.1 °F 30.36 in Calm     82% 0.00 in 0 W/m2
00:54 39.2 °F 34.2 °F 30.36 in Calm     82% 0.00 in 0 W/m2
00:59 39.3 °F 34.3 °F 30.36 in Calm     82% 0.00 in 0 W/m2
01:04 39.3 °F 34.3 °F 30.36 in Calm     82% 0.00 in 0 W/m2
01:09 39.3 °F 34.5 °F 30.36 in Calm     82.6% 0.00 in 0 W/m2
01:14 39.3 °F 34.6 °F 30.35 in Calm     83% 0.00 in 0 W/m2
01:19 39.4 °F 34.6 °F 30.35 in Calm     83% 0.00 in 0 W/m2
01:24 39.4 °F 34.7 °F 30.35 in Calm     83% 0.00 in 0 W/m2
01:29 39.4 °F 34.7 °F 30.35 in Calm     83% 0.00 in 0 W/m2
01:34 39.4 °F 34.7 °F 30.35 in Calm     83% 0.00 in 0 W/m2
01:39 39.5 °F 34.8 °F 30.35 in Calm     83% 0.00 in 0 W/m2
01:44 39.5 °F 34.8 °F 30.35 in Calm     83% 0.00 in 0 W/m2
01:49 39.5 °F 34.8 °F 30.34 in Calm     83% 0.00 in 0 W/m2
01:54 39.6 °F 34.8 °F 30.34 in Calm     83% 0.00 in 0 W/m2
01:59 39.6 °F 34.9 °F 30.34 in Calm     83% 0.00 in 0 W/m2
02:04 39.7 °F 34.9 °F 30.33 in Calm     83% 0.00 in 0 W/m2
02:09 39.7 °F 35 °F 30.33 in Calm     83% 0.00 in 0 W/m2
02:14 39.7 °F 35 °F 30.32 in Calm     83% 0.00 in 0 W/m2
02:19 39.7 °F 35.2 °F 30.32 in Calm     83.8% 0.00 in 0 W/m2
02:24 39.7 °F 35 °F 30.32 in Calm     83.2% 0.00 in 0 W/m2
02:29 39.7 °F 35 °F 30.32 in Calm     83% 0.00 in 0 W/m2
02:34 39.7 °F 35.2 °F 30.32 in Calm     83.9% 0.00 in 0 W/m2
02:39 39.7 °F 35.3 °F 30.31 in Calm     84% 0.00 in 0 W/m2
02:44 39.8 °F 35.4 °F 30.31 in Calm     84% 0.00 in 0 W/m2
02:49 39.8 °F 35.4 °F 30.31 in Calm     84% 0.00 in 0 W/m2
02:54 39.8 °F 35.4 °F 30.31 in Calm     84% 0.00 in 0 W/m2
02:59 39.8 °F 35.4 °F 30.31 in Calm     84% 0.00 in 0 W/m2
03:04 39.8 °F 35.4 °F 30.30 in Calm     84% 0.00 in 0 W/m2
03:09 39.8 °F 35.4 °F 30.30 in Calm     84% 0.00 in 0 W/m2
03:14 39.8 °F 35.4 °F 30.30 in Calm     84% 0.00 in 0 W/m2
03:19 39.8 °F 35.4 °F 30.30 in Calm     84% 0.00 in 0 W/m2
03:24 39.8 °F 35.4 °F 30.29 in Calm     84.1% 0.00 in 0 W/m2
03:29 39.9 °F 35.7 °F 30.29 in Calm     85% 0.00 in 0 W/m2
03:34 39.9 °F 35.8 °F 30.28 in Calm     85% 0.00 in 0 W/m2
03:39 39.9 °F 35.8 °F 30.28 in Calm     85% 0.00 in 0 W/m2
03:44 40 °F 35.8 °F 30.27 in Calm     85% 0.00 in 0 W/m2
03:49 40 °F 36.2 °F 30.26 in Calm     86% 0.00 in 0 W/m2
03:54 40.1 °F 36.3 °F 30.26 in Calm     86% 0.00 in 0 W/m2
03:59 40.1 °F 36.3 °F 30.26 in Calm     86% 0.00 in 0 W/m2
04:00 40.2 °F 36.3 °F 30.25 in Calm     86% 0.00 in 0 W/m2
04:09 40.3 °F 36.4 °F 30.25 in Calm     86% 0.00 in 0 W/m2
04:14 40.3 °F 36.5 °F 30.25 in Calm     86% 0.00 in 0 W/m2
04:19 40.3 °F 36.5 °F 30.24 in Calm     86% 0.00 in 0 W/m2
04:24 40.3 °F 36.4 °F 30.24 in Calm     86% 0.00 in 0 W/m2
04:29 40.3 °F 36.4 °F 30.24 in Calm     86% 0.00 in 0 W/m2
04:34 40.3 °F 36.7 °F 30.23 in Calm     86.7% 0.00 in 0 W/m2
04:39 40.5 °F 36.9 °F 30.23 in Calm     87% 0.00 in 0 W/m2
04:44 40.7 °F 37.1 °F 30.23 in Calm     87% 0.00 in 0 W/m2
04:49 40.9 °F 37.5 °F 30.22 in Calm     87.5% 0.00 in 0 W/m2
04:54 41.2 °F 37.9 °F 30.22 in Calm     88% 0.00 in 0 W/m2
04:59 41.5 °F 38.2 °F 30.22 in Calm     88% 0.00 in 0 W/m2
05:04 41.9 °F 38.6 °F 30.22 in Calm     88% 0.00 in 0 W/m2
05:09 42.3 °F 39.2 °F 30.21 in Calm     88.6% 0.00 in 0 W/m2
05:14 43 °F 40.1 °F 30.21 in Calm   1 mph 89.4% 0.00 in 0 W/m2
05:19 43.8 °F 41 °F 30.20 in Calm   1 mph 90% 0.00 in 0 W/m2
05:24 44.4 °F 41.7 °F 30.21 in Calm   1 mph 90% 0.00 in 0 W/m2
05:29 44.8 °F 42.1 °F 30.20 in Calm   1 mph 90% 0.00 in 0 W/m2
05:34 45.1 °F 42.4 °F 30.20 in Calm   1 mph 90% 0.00 in 0 W/m2
05:39 45.5 °F 42.7 °F 30.20 in Calm   1 mph 90% 0.00 in 0 W/m2
05:44 45.9 °F 43.3 °F 30.20 in South 0.1 mph 1 mph 90.6% 0.00 in 0 W/m2
05:49 46.1 °F 43.6 °F 30.19 in Calm   1 mph 90.9% 0.00 in 0 W/m2
05:54 46.3 °F 43.9 °F 30.19 in South 0.4 mph 3 mph 91% 0.00 in 0 W/m2
05:59 46.7 °F 44.2 °F 30.19 in South 0.5 mph 3 mph 91.2% 0.00 in 0 W/m2
06:04 47 °F 44.8 °F 30.19 in South 0.2 mph 3 mph 92% 0.00 in 0 W/m2
06:09 47.3 °F 45.1 °F 30.18 in South 0.4 mph 2 mph 92% 0.00 in 0 W/m2
06:14 47.5 °F 45.3 °F 30.18 in South 0.5 mph 2 mph 92.1% 0.00 in 0 W/m2
06:19 47.8 °F 45.9 °F 30.18 in South 0.3 mph 2 mph 93% 0.00 in 0 W/m2
06:24 48.3 °F 46.3 °F 30.18 in South 0.7 mph 4 mph 93% 0.00 in 0 W/m2
06:29 48.8 °F 47 °F 30.18 in South 1.2 mph 4 mph 93.3% 0.00 in 0 W/m2
06:34 49.4 °F 47.7 °F 30.18 in SSW 1.3 mph 4 mph 94% 0.00 in 0 W/m2
06:39 49.8 °F 48.2 °F 30.17 in SSW 1.1 mph 4 mph 94% 0.00 in 0 W/m2
06:44 50.2 °F 48.5 °F 30.17 in SW 1.5 mph 6 mph 94% 0.00 in 0 W/m2
06:49 50.4 °F 48.7 °F 30.17 in SSW 1.4 mph 7 mph 94% 0.00 in 0 W/m2
06:54 50.6 °F 48.8 °F 30.16 in SSW 0.9 mph 7 mph 93.6% 0.00 in 0 W/m2
06:59 50.6 °F 48.7 °F 30.16 in SW 0.6 mph 7 mph 93% 0.00 in 0 W/m2
07:04 50.7 °F 48.8 °F 30.16 in SW 0.5 mph 7 mph 93% 0.00 in 0 W/m2
07:09 50.9 °F 49.1 °F 30.16 in SSW 0.7 mph 3 mph 93.5% 0.00 in 0 W/m2
07:14 51.1 °F 49.3 °F 30.16 in SSW 1.3 mph 5 mph 93.8% 0.00 in 0 W/m2
07:19 51.3 °F 49.4 °F 30.15 in SSW 1.3 mph 6 mph 93.2% 0.00 in 0 W/m2
07:24 51.6 °F 49.9 °F 30.15 in SSW 1.5 mph 6 mph 94% 0.00 in 7 W/m2
07:29 51.8 °F 50 °F 30.15 in South 1.4 mph 6 mph 93.5% 0.00 in 7 W/m2
07:34 52 °F 50 °F 30.14 in South 1 mph 9 mph 93% 0.00 in 12 W/m2
07:39 52.1 °F 50.2 °F 30.14 in South 0.8 mph 9 mph 93% 0.00 in 19 W/m2
07:44 52.2 °F 50.3 °F 30.13 in South 1.9 mph 12 mph 93% 0.00 in 32 W/m2
07:49 52.4 °F 50.5 °F 30.13 in South 1.4 mph 12 mph 93% 0.00 in 40 W/m2
07:54 52.7 °F 50.7 °F 30.13 in SSW 1.8 mph 12 mph 93% 0.00 in 32 W/m2
07:59 52.9 °F 51 °F 30.13 in SSW 1.7 mph 12 mph 93% 0.00 in 33 W/m2
08:00 53.1 °F 51.1 °F 30.12 in South 3 mph 12 mph 93% 0.00 in 26 W/m2
08:09 53.5 °F 51.3 °F 30.12 in South 2.3 mph 10 mph 92.4% 0.00 in 21 W/m2
08:14 53.7 °F 51.4 °F 30.12 in South 1.6 mph 10 mph 92% 0.00 in 21 W/m2
08:19 54 °F 51.7 °F 30.12 in South 2.1 mph 12 mph 92% 0.00 in 19 W/m2
08:24 54.1 °F 51.9 °F 30.12 in South 2.1 mph 12 mph 92% 0.00 in 16 W/m2
08:29 54.2 °F 51.9 °F 30.11 in SSW 1.4 mph 12 mph 91.7% 0.00 in 14 W/m2
08:34 54.3 °F 51.8 °F 30.11 in South 2 mph 12 mph 91% 0.00 in 16 W/m2
08:39 54.4 °F 51.8 °F 30.11 in SSW 2.6 mph 9 mph 91% 0.00 in 16 W/m2
08:44 54.4 °F 51.8 °F 30.11 in South 2.2 mph 10 mph 91% 0.01 in 14 W/m2
08:49 54.4 °F 51.8 °F 30.10 in South 0.9 mph 10 mph 91% 0.01 in 19 W/m2
08:54 54.4 °F 51.8 °F 30.10 in South 1.6 mph 10 mph 91% 0.01 in 21 W/m2
08:59 54.5 °F 51.9 °F 30.10 in South 1.3 mph 10 mph 91% 0.01 in 16 W/m2
09:04 54.6 °F 52.2 °F 30.10 in SSW 2.5 mph 11 mph 91.8% 0.01 in 18 W/m2
09:09 54.6 °F 52.4 °F 30.09 in SSW 1.2 mph 11 mph 92% 0.01 in 18 W/m2
09:14 54.8 °F 52.5 °F 30.09 in SSW 2.7 mph 11 mph 92% 0.02 in 19 W/m2
09:19 54.9 °F 52.6 °F 30.08 in SSW 1.8 mph 11 mph 92% 0.02 in 16 W/m2
09:24 54.9 °F 52.6 °F 30.08 in SSW 3.5 mph 11 mph 92% 0.02 in 21 W/m2
09:29 55.1 °F 52.8 °F 30.08 in SSW 2.4 mph 12 mph 92% 0.03 in 21 W/m2
09:34 55.2 °F 52.9 °F 30.08 in SSW 1.5 mph 12 mph 92% 0.03 in 26 W/m2
09:39 55.2 °F 53 °F 30.08 in SSW 2.7 mph 11 mph 92% 0.03 in 21 W/m2
09:44 55.3 °F 53 °F 30.07 in SSW 4.1 mph 14 mph 92% 0.03 in 25 W/m2
09:49 55.4 °F 53.1 °F 30.06 in SSW 1.7 mph 14 mph 92% 0.04 in 28 W/m2
09:54 55.4 °F 53.1 °F 30.06 in SSW 4.4 mph 16 mph 92% 0.04 in 21 W/m2
09:59 55.4 °F 53.1 °F 30.05 in SSW 1.4 mph 16 mph 92% 0.04 in 19 W/m2
10:00 55.5 °F 53.2 °F 30.05 in South 6.6 mph 16 mph 92% 0.04 in 19 W/m2
10:30 55.6 °F 53.6 °F 30.02 in SSW 2 mph 11 mph 93% 0.07 in 23 W/m2
11:00 55.8 °F 53.8 °F 30.00 in SSW 2 mph 12 mph 93% 0.08 in 28 W/m2
11:30 55.7 °F 54 °F 29.98 in SSW 2 mph 16 mph 94% 0.12 in 30 W/m2
12:04 55.8 °F 54.1 °F 29.98 in SW 1.9 mph 16 mph 94% 0.12 in 30 W/m2
12:09 55.8 °F 54.1 °F 29.95 in SW 0.9 mph 12 mph 94% 0.12 in 35 W/m2
12:14 55.8 °F 54.1 °F 29.94 in SSW 0.9 mph 12 mph 94% 0.13 in 39 W/m2
12:19 55.8 °F 54.1 °F 29.93 in SSW 1.7 mph 12 mph 94% 0.14 in 28 W/m2
12:24 55.8 °F 54.1 °F 29.93 in SSW 2.1 mph 12 mph 94% 0.15 in 28 W/m2
12:29 55.9 °F 54.2 °F 29.93 in SSW 1.6 mph 12 mph 94% 0.16 in 30 W/m2
12:34 55.9 °F 54.2 °F 29.92 in SW 1.3 mph 12 mph 94% 0.16 in 30 W/m2
12:39 55.9 °F 54.2 °F 29.92 in SW 2.3 mph 11 mph 94% 0.10 in 26 W/m2
12:44 55.9 °F 54.2 °F 29.92 in SW 1.9 mph 11 mph 94% 0.11 in 28 W/m2
12:49 55.9 °F 54.2 °F 29.91 in SW 2.5 mph 11 mph 94% 0.12 in 26 W/m2
12:54 56 °F 54.3 °F 29.91 in SW 1.6 mph 11 mph 94% 0.13 in 26 W/m2
12:59 56 °F 54.3 °F 29.90 in SW 2.6 mph 11 mph 94% 0.13 in 26 W/m2
13:04 56 °F 54.3 °F 29.91 in SW 0.8 mph 11 mph 94% 0.13 in 28 W/m2
13:09 56 °F 54.4 °F 29.90 in SW 2.3 mph 12 mph 94.2% 0.07 in 28 W/m2
13:14 56 °F 54.6 °F 29.90 in SW 2.5 mph 13 mph 94.9% 0.07 in 26 W/m2
13:19 56 °F 54.6 °F 29.89 in SW 2 mph 13 mph 95% 0.08 in 30 W/m2
13:24 56 °F 54.6 °F 29.89 in SW 2.1 mph 13 mph 95% 0.09 in 25 W/m2
13:29 56 °F 54.6 °F 29.89 in SW 1.9 mph 13 mph 95% 0.10 in 28 W/m2
13:34 56.1 °F 54.7 °F 29.88 in SSW 0.8 mph 13 mph 95% 0.10 in 28 W/m2
13:39 56.1 °F 54.7 °F 29.88 in SW 2.2 mph 10 mph 95% 0.10 in 33 W/m2
13:44 56.1 °F 54.7 °F 29.88 in SW 2 mph 10 mph 95% 0.11 in 40 W/m2
13:49 56.1 °F 54.7 °F 29.88 in SW 0.7 mph 10 mph 95% 0.11 in 40 W/m2
13:54 56.1 °F 54.7 °F 29.88 in SW 1.2 mph 10 mph 95% 0.11 in 18 W/m2
13:59 56.1 °F 54.7 °F 29.88 in SW 1.1 mph 10 mph 95% 0.12 in 16 W/m2
14:04 56.1 °F 54.6 °F 29.88 in SW 1.7 mph 11 mph 94.9% 0.12 in 19 W/m2
14:09 56.1 °F 54.6 °F 29.88 in SW 1.1 mph 11 mph 94.7% 0.07 in 33 W/m2
14:14 56.1 °F 54.6 °F 29.87 in SW 2.9 mph 13 mph 94.5% 0.07 in 26 W/m2
14:19 56.1 °F 54.4 °F 29.87 in SW 1.7 mph 13 mph 94% 0.07 in 18 W/m2
14:24 56.1 °F 54.4 °F 29.88 in SW 1.1 mph 13 mph 94% 0.07 in 14 W/m2
14:29 56.1 °F 54.4 °F 29.88 in SW 1.1 mph 13 mph 94% 0.07 in 16 W/m2
14:34 56.1 °F 54.4 °F 29.87 in SW 0.4 mph 13 mph 94% 0.07 in 16 W/m2
14:39 56.1 °F 54.4 °F 29.87 in SW 0.8 mph 6 mph 94% 0.02 in 18 W/m2
14:44 56.1 °F 54.4 °F 29.87 in SW 1.3 mph 7 mph 94% 0.02 in 21 W/m2
14:49 56.1 °F 54.4 °F 29.86 in SW 1.1 mph 7 mph 94% 0.02 in 21 W/m2
14:54 56.1 °F 54.4 °F 29.86 in South 0.8 mph 11 mph 94% 0.02 in 19 W/m2
14:59 56.1 °F 54.4 °F 29.86 in SW 1.1 mph 11 mph 94% 0.02 in 14 W/m2
15:04 56.1 °F 54.4 °F 29.86 in SW 0.9 mph 11 mph 94% 0.02 in 12 W/m2
15:09 56.1 °F 54.4 °F 29.87 in SW 1.7 mph 7 mph 94% 0.00 in 9 W/m2
15:14 56.2 °F 54.5 °F 29.87 in SW 1 mph 9 mph 94% 0.00 in 7 W/m2
15:19 56.2 °F 54.5 °F 29.87 in SW 1.1 mph 9 mph 94% 0.00 in 7 W/m2
15:24 56.2 °F 54.5 °F 29.87 in SW 1.4 mph 9 mph 94% 0.00 in 5 W/m2
15:29 56.2 °F 54.5 °F 29.87 in SW 2.1 mph 9 mph 94% 0.00 in 9 W/m2
15:34 56.2 °F 54.5 °F 29.87 in SW 1 mph 9 mph 94% 0.00 in 11 W/m2
15:39 56.2 °F 54.5 °F 29.86 in SW 0.7 mph 7 mph 94% 0.00 in 12 W/m2
15:44 56.2 °F 54.5 °F 29.86 in SW 1.8 mph 10 mph 94% 0.00 in 9 W/m2
15:49 56.3 °F 54.6 °F 29.86 in SW 3 mph 10 mph 94% 0.00 in 5 W/m2
15:54 56.3 °F 54.6 °F 29.86 in SW 2 mph 10 mph 94% 0.00 in 9 W/m2
15:58 56.4 °F 54.5 °F 29.86 in SW 0.8 mph 10 mph 93.2% 0.00 in 9 W/m2
16:04 56.4 °F 54.4 °F 29.86 in SW 1.3 mph 7 mph 93% 0.00 in 0 W/m2
16:09 56.4 °F 54.4 °F 29.86 in SW 0.7 mph 7 mph 93% 0.00 in 5 W/m2
16:14 56.5 °F 54.5 °F 29.86 in SW 0.7 mph 9 mph 93% 0.00 in 0 W/m2
16:19 56.5 °F 54.4 °F 29.86 in SW 2.2 mph 10 mph 92.7% 0.00 in 0 W/m2
16:24 56.4 °F 54.1 °F 29.86 in SW 1 mph 10 mph 92% 0.00 in 0 W/m2
16:29 56.4 °F 54.1 °F 29.85 in SW 1.2 mph 11 mph 92% 0.00 in 0 W/m2
16:34 56.3 °F 54 °F 29.85 in SW 0.5 mph 11 mph 92% 0.00 in 0 W/m2
16:39 56.3 °F 54 °F 29.86 in SW 0.3 mph 6 mph 92% 0.00 in 0 W/m2
16:44 56.3 °F 54 °F 29.86 in SW 0.2 mph 6 mph 92% 0.00 in 0 W/m2
16:49 56.4 °F 54.1 °F 29.86 in SW 0.6 mph 6 mph 92% 0.00 in 0 W/m2
16:54 56.4 °F 54 °F 29.86 in SW 0.8 mph 7 mph 91.5% 0.00 in 0 W/m2
16:59 56.4 °F 53.8 °F 29.86 in SW 0.2 mph 7 mph 91% 0.00 in 0 W/m2
17:04 56.5 °F 53.9 °F 29.85 in SW 0.1 mph 1 mph 91% 0.00 in 0 W/m2
17:09 56.5 °F 53.9 °F 29.85 in SW 0.3 mph 3 mph 91% 0.00 in 0 W/m2
17:14 56.5 °F 53.9 °F 29.86 in SW 0.6 mph 8 mph 91% 0.00 in 0 W/m2
17:19 56.5 °F 53.9 °F 29.86 in SW 0.6 mph 8 mph 91% 0.00 in 0 W/m2
17:24 56.5 °F 53.9 °F 29.86 in WSW 1.2 mph 10 mph 91% 0.00 in 0 W/m2
17:29 56.4 °F 53.5 °F 29.86 in SW 0.8 mph 10 mph 90% 0.00 in 0 W/m2
17:34 56.4 °F 53.5 °F 29.86 in WSW 0.1 mph 10 mph 90% 0.00 in 0 W/m2
17:39 56.4 °F 53.5 °F 29.86 in WSW 0.4 mph 3 mph 90% 0.00 in 0 W/m2
17:44 56.3 °F 53.4 °F 29.86 in SW 0.7 mph 7 mph 90% 0.00 in 0 W/m2
17:49 56.2 °F 53.4 °F 29.87 in SW 1 mph 9 mph 90% 0.00 in 0 W/m2
17:54 56.2 °F 53.3 °F 29.87 in SW 1 mph 9 mph 90% 0.00 in 0 W/m2
17:59 56.2 °F 53 °F 29.87 in SW 1 mph 9 mph 89.1% 0.00 in 0 W/m2
18:04 56.2 °F 52.9 °F 29.87 in WSW 0.9 mph 9 mph 88.7% 0.00 in 0 W/m2
18:09 56.2 °F 52.7 °F 29.87 in WSW 0.3 mph 6 mph 88% 0.00 in 0 W/m2
18:14 56.2 °F 52.7 °F 29.87 in WSW 0.5 mph 6 mph 88% 0.00 in 0 W/m2
18:19 56.1 °F 52.4 °F 29.87 in SW 0.4 mph 6 mph 87.4% 0.00 in 0 W/m2
18:24 56 °F 52.2 °F 29.88 in WSW 0.7 mph 6 mph 87% 0.00 in 0 W/m2
18:29 55.9 °F 51.8 °F 29.88 in SW 1.1 mph 10 mph 86.3% 0.00 in 0 W/m2
18:34 55.7 °F 51.6 °F 29.88 in SW 0.4 mph 10 mph 86% 0.00 in 0 W/m2
18:39 55.6 °F 51.5 °F 29.88 in WSW 0.7 mph 6 mph 86% 0.00 in 0 W/m2
18:44 55.4 °F 51.3 °F 29.89 in WSW 1.5 mph 10 mph 86% 0.00 in 0 W/m2
18:49 55.3 °F 51.1 °F 29.89 in WSW 0.2 mph 10 mph 86% 0.00 in 0 W/m2
18:54 55.1 °F 50.9 °F 29.89 in SW 1.2 mph 11 mph 86% 0.00 in 0 W/m2
18:59 54.9 °F 50.8 °F 29.89 in WSW 0.6 mph 11 mph 86% 0.00 in 0 W/m2
19:04 54.7 °F 50.6 °F 29.89 in SW 0.8 mph 11 mph 86% 0.00 in 0 W/m2
19:09 54.5 °F 50.4 °F 29.90 in WSW 0.9 mph 7 mph 86% 0.00 in 0 W/m2
19:14 54.4 °F 50.3 °F 29.90 in SW 0.9 mph 7 mph 86% 0.00 in 0 W/m2
19:19 54.2 °F 50.2 °F 29.91 in WSW 0.5 mph 9 mph 86.1% 0.00 in 0 W/m2
19:24 54.2 °F 50.4 °F 29.91 in West 6.7 mph 20 mph 86.9% 0.00 in 0 W/m2
19:29 54.1 °F 49.6 °F 29.92 in NW 9.3 mph 22 mph 84.8% 0.00 in 0 W/m2
19:34 53.8 °F 48.2 °F 29.93 in NW 11.5 mph 28 mph 81.4% 0.00 in 0 W/m2
19:39 53.1 °F 45.6 °F 29.93 in NW 9.7 mph 28 mph 75.7% 0.00 in 0 W/m2
19:44 52.6 °F 44.6 °F 29.94 in WNW 8 mph 28 mph 74.1% 0.00 in 0 W/m2
19:49 52.2 °F 44 °F 29.94 in NW 7.8 mph 28 mph 73.7% 0.00 in 0 W/m2
19:54 51.7 °F 42.5 °F 29.95 in NW 10.8 mph 28 mph 70.6% 0.00 in 0 W/m2
19:59 51.3 °F 41.9 °F 29.95 in NW 7 mph 28 mph 70% 0.00 in 0 W/m2
20:04 50.7 °F 41.3 °F 29.96 in WNW 8.5 mph 11 mph 70% 0.00 in 0 W/m2
20:09 50.5 °F 41.2 °F 29.96 in NW 9.5 mph 18 mph 70.2% 0.00 in 0 W/m2
20:14 50.1 °F 41.1 °F 29.96 in WNW 7.8 mph 20 mph 71% 0.00 in 0 W/m2
20:19 49.7 °F 40.9 °F 29.97 in WNW 9.3 mph 21 mph 71.5% 0.00 in 0 W/m2
20:24 49.4 °F 40.8 °F 29.97 in WNW 7 mph 21 mph 72% 0.00 in 0 W/m2
20:29 49.1 °F 40.5 °F 29.98 in NW 10.3 mph 21 mph 72% 0.00 in 0 W/m2
20:34 48.9 °F 40.5 °F 29.98 in NW 5.2 mph 21 mph 72.8% 0.00 in 0 W/m2
20:39 48.6 °F 40.4 °F 29.98 in WNW 8.1 mph 18 mph 73% 0.00 in 0 W/m2
20:44 48.3 °F 40.1 °F 29.99 in NW 6.1 mph 18 mph 73.1% 0.00 in 0 W/m2
20:49 48 °F 39.7 °F 29.99 in NW 4.3 mph 18 mph 72.7% 0.00 in 0 W/m2
20:54 47.7 °F 39.4 °F 29.99 in NW 7.7 mph 21 mph 72.7% 0.00 in 0 W/m2
20:59 47.5 °F 38.9 °F 29.99 in NW 7.1 mph 21 mph 72% 0.00 in 0 W/m2
21:04 47.2 °F 38.7 °F 29.99 in NW 6.6 mph 21 mph 72% 0.00 in 0 W/m2
21:09 47 °F 38.4 °F 30.00 in NW 9.8 mph 20 mph 72% 0.00 in 0 W/m2
21:14 46.8 °F 38.2 °F 30.00 in WNW 7.7 mph 20 mph 72% 0.00 in 0 W/m2
21:19 46.6 °F 38.1 °F 30.00 in WNW 9.8 mph 20 mph 72% 0.00 in 0 W/m2
21:24 46.4 °F 37.9 °F 30.00 in WNW 8.5 mph 20 mph 72% 0.00 in 0 W/m2
21:29 46.3 °F 37.8 °F 30.01 in WNW 10 mph 20 mph 72% 0.00 in 0 W/m2
21:34 46.1 °F 37.6 °F 30.01 in WNW 6.8 mph 20 mph 72% 0.00 in 0 W/m2
21:39 46 °F 37.5 °F 30.01 in NW 7.3 mph 19 mph 72% 0.00 in 0 W/m2
21:44 45.8 °F 37.3 °F 30.00 in WNW 7.9 mph 19 mph 72% 0.00 in 0 W/m2
21:49 45.7 °F 37.2 °F 30.00 in WNW 7.6 mph 19 mph 72% 0.00 in 0 W/m2
21:54 45.6 °F 37.1 °F 30.00 in WNW 7 mph 19 mph 72% 0.00 in 0 W/m2
21:59 45.6 °F 36.9 °F 30.00 in WNW 7.4 mph 19 mph 71.5% 0.00 in 0 W/m2
22:04 45.5 °F 36.7 °F 30.01 in WNW 8.5 mph 19 mph 71% 0.00 in 0 W/m2
22:09 45.5 °F 36.4 °F 30.01 in WNW 6.6 mph 15 mph 70.3% 0.00 in 0 W/m2
22:14 45.4 °F 36.2 °F 30.01 in WNW 4.1 mph 15 mph 70% 0.00 in 0 W/m2
22:19 45.3 °F 36.1 °F 30.01 in NW 3.5 mph 15 mph 70% 0.00 in 0 W/m2
22:24 45.1 °F 35.9 °F 30.01 in NW 2.8 mph 15 mph 70% 0.00 in 0 W/m2
22:29 44.9 °F 35.8 °F 30.02 in NW 1.3 mph 15 mph 70% 0.00 in 0 W/m2
22:34 44.8 °F 35.6 °F 30.02 in NW 0.3 mph 15 mph 70% 0.00 in 0 W/m2
22:39 44.6 °F 35.5 °F 30.02 in Calm   5 mph 70% 0.00 in 0 W/m2
22:44 44.5 °F 35.3 °F 30.02 in Calm   5 mph 70% 0.00 in 0 W/m2
22:49 44.3 °F 35.4 °F 30.02 in NNW 0.7 mph 6 mph 70.8% 0.00 in 0 W/m2
22:54 44.1 °F 35.6 °F 30.02 in NW 1.7 mph 7 mph 71.9% 0.00 in 0 W/m2
22:59 43.9 °F 35.7 °F 30.02 in NW 1.3 mph 7 mph 72.7% 0.00 in 0 W/m2
23:00 43.8 °F 35.7 °F 30.02 in Calm   7 mph 73% 0.00 in 0 W/m2
23:09 43.7 °F 35.6 °F 30.03 in NW 1.5 mph 8 mph 73% 0.00 in 0 W/m2
23:14 43.6 °F 35.5 °F 30.04 in NW 2.9 mph 11 mph 73% 0.00 in 0 W/m2
23:19 43.5 °F 35.5 °F 30.04 in NNW 3 mph 11 mph 73% 0.00 in 0 W/m2
23:24 43.4 °F 35.3 °F 30.04 in NW 5.7 mph 13 mph 72.7% 0.00 in 0 W/m2
23:29 43.4 °F 35 °F 30.04 in NW 1.1 mph 13 mph 72% 0.00 in 0 W/m2
23:34 43.4 °F 35.1 °F 30.04 in NW 9.3 mph 18 mph 72.2% 0.00 in 0 W/m2
23:39 43.4 °F 34.9 °F 30.04 in WNW 9.5 mph 18 mph 71.8% 0.00 in 0 W/m2
23:44 43.4 °F 34.6 °F 30.04 in NW 7.8 mph 18 mph 71% 0.00 in 0 W/m2
23:49 43.4 °F 34.6 °F 30.04 in WNW 7.1 mph 18 mph 71% 0.00 in 0 W/m2
23:54 43.2 °F 34.5 °F 30.04 in NNW 2.8 mph 18 mph 71% 0.00 in 0 W/m2
23:59 43 °F 34.5 °F 30.04 in WNW 3 mph 18 mph 71.7% 0.00 in 0 W/m2
Hartford County Weather
Compliments of Weather Underground - 4 mb